createdAt,value
2022-08-21T00:01:40.911Z,98491.28
2022-08-21T00:04:09.086Z,98491.59
2022-08-21T00:06:37.378Z,98497.59
2022-08-21T00:09:06.829Z,98490.00
2022-08-21T00:11:36.121Z,98485.72
2022-08-21T00:14:04.810Z,98489.28
2022-08-21T00:16:32.013Z,98489.16
2022-08-21T00:18:58.889Z,98477.59
2022-08-21T00:21:26.371Z,98480.94
2022-08-21T00:23:53.384Z,98471.16
2022-08-21T00:26:19.973Z,98467.69
2022-08-21T00:28:50.137Z,98478.25
2022-08-21T00:31:17.905Z,98487.97
2022-08-21T00:33:45.173Z,98477.75
2022-08-21T00:36:12.362Z,98478.66
2022-08-21T00:38:38.942Z,98469.94
2022-08-21T00:41:29.857Z,98471.81
2022-08-21T00:43:55.915Z,98472.94
2022-08-21T00:46:24.854Z,98472.59
2022-08-21T00:48:57.262Z,98480.66
2022-08-21T00:51:33.790Z,98481.69
2022-08-21T00:54:05.771Z,98479.25
2022-08-21T00:56:32.464Z,98478.34
2022-08-21T00:59:01.224Z,98483.13
2022-08-21T01:01:28.466Z,98483.03
2022-08-21T01:03:55.240Z,98485.69
2022-08-21T01:06:22.135Z,98484.91
2022-08-21T01:08:49.301Z,98491.00
2022-08-21T01:11:16.756Z,98495.22
2022-08-21T01:13:47.265Z,98490.84
2022-08-21T01:16:18.539Z,98498.97
2022-08-21T01:18:46.968Z,98492.72
2022-08-21T01:21:23.380Z,98485.69
2022-08-21T01:23:56.239Z,98476.03
2022-08-21T01:26:33.619Z,98480.41
2022-08-21T01:29:08.373Z,98477.66
2022-08-21T01:31:35.110Z,98478.69
2022-08-21T01:34:02.370Z,98476.03
2022-08-21T01:36:29.102Z,98486.41
2022-08-21T01:38:56.607Z,98483.72
2022-08-21T01:41:23.394Z,98481.97
2022-08-21T01:43:50.537Z,98472.78
2022-08-21T01:46:18.004Z,98477.31
2022-08-21T01:48:44.678Z,98470.16
2022-08-21T01:51:12.876Z,98466.72
2022-08-21T01:53:40.144Z,98470.22
2022-08-21T01:56:12.480Z,98477.97
2022-08-21T01:58:40.545Z,98473.38
2022-08-21T02:01:07.257Z,98474.50
2022-08-21T02:03:35.609Z,98477.13
2022-08-21T02:06:05.443Z,98482.41
2022-08-21T02:08:32.237Z,98478.25
2022-08-21T02:11:01.081Z,98479.97
2022-08-21T02:13:27.739Z,98476.47
2022-08-21T02:15:54.276Z,98476.31
2022-08-21T02:18:21.035Z,98472.94
2022-08-21T02:20:49.401Z,98464.34
2022-08-21T02:23:26.491Z,98468.94
2022-08-21T02:25:55.841Z,98464.66
2022-08-21T02:28:22.731Z,98466.34
2022-08-21T02:30:50.344Z,98467.06
2022-08-21T02:33:17.191Z,98471.00
2022-08-21T02:35:46.115Z,98452.72
2022-08-21T02:38:16.706Z,98467.41
2022-08-21T02:40:48.364Z,98462.03
2022-08-21T02:43:19.456Z,98466.97
2022-08-21T02:45:47.077Z,98461.47
2022-08-21T02:48:17.836Z,98469.94
2022-08-21T02:50:52.005Z,98466.78
2022-08-21T02:53:19.077Z,98467.34
2022-08-21T02:55:48.383Z,98469.22
2022-08-21T02:58:17.792Z,98468.06
2022-08-21T03:00:45.152Z,98460.97
2022-08-21T03:03:12.432Z,98460.91
2022-08-21T03:05:39.034Z,98460.19
2022-08-21T03:08:11.415Z,98461.06
2022-08-21T03:10:43.749Z,98463.72
2022-08-21T03:13:11.015Z,98467.34
2022-08-21T03:15:38.813Z,98462.91
2022-08-21T03:18:06.075Z,98460.91
2022-08-21T03:20:33.678Z,98468.94
2022-08-21T03:23:01.323Z,98459.03
2022-08-21T03:25:39.641Z,98469.53
2022-08-21T03:28:13.019Z,98479.97
2022-08-21T03:30:42.285Z,98472.09
2022-08-21T03:33:09.193Z,98477.31
2022-08-21T03:35:40.042Z,98472.38
2022-08-21T03:38:06.669Z,98474.09
2022-08-21T03:40:33.381Z,98475.09
2022-08-21T03:43:00.027Z,98481.19
2022-08-21T03:45:27.205Z,98464.25
2022-08-21T03:48:02.711Z,98468.44
2022-08-21T03:50:34.810Z,98478.09
2022-08-21T03:53:01.741Z,98476.19
2022-08-21T03:55:28.234Z,98471.72
2022-08-21T03:57:54.758Z,98470.66
2022-08-21T04:00:21.960Z,98475.94
2022-08-21T04:02:49.845Z,98468.81
2022-08-21T04:05:28.309Z,98469.66
2022-08-21T04:07:56.898Z,98472.22
2022-08-21T04:10:25.586Z,98476.38
2022-08-21T04:12:53.550Z,98480.69
2022-08-21T04:15:21.882Z,98487.44
2022-08-21T04:17:49.420Z,98484.53
2022-08-21T04:20:17.660Z,98494.09
2022-08-21T04:22:45.450Z,98490.25
2022-08-21T04:25:14.288Z,98489.97
2022-08-21T04:27:41.431Z,98494.25
2022-08-21T04:30:10.113Z,98504.53
2022-08-21T04:32:38.374Z,98501.75
2022-08-21T04:35:08.441Z,98498.94
2022-08-21T04:37:35.877Z,98495.34
2022-08-21T04:40:10.603Z,98499.72
2022-08-21T04:42:53.387Z,98499.59
2022-08-21T04:45:23.438Z,98499.72
2022-08-21T04:47:53.013Z,98499.72
2022-08-21T04:50:21.592Z,98502.53
2022-08-21T04:52:48.473Z,98509.56
2022-08-21T04:55:17.194Z,98507.06
2022-08-21T04:57:48.589Z,98503.84
2022-08-21T05:00:19.874Z,98510.97
2022-08-21T05:02:48.736Z,98507.06
2022-08-21T05:05:16.304Z,98516.44
2022-08-21T05:07:44.814Z,98525.41
2022-08-21T05:10:13.800Z,98524.38
2022-08-21T05:12:43.007Z,98526.88
2022-08-21T05:15:13.761Z,98518.84
2022-08-21T05:17:41.789Z,98515.72
2022-08-21T05:20:09.969Z,98524.44
2022-08-21T05:22:36.816Z,98534.44
2022-08-21T05:25:03.910Z,98524.16
2022-08-21T05:27:37.058Z,98528.66
2022-08-21T05:30:08.811Z,98527.31
2022-08-21T05:32:36.251Z,98530.56
2022-08-21T05:35:04.855Z,98525.91
2022-08-21T05:37:31.467Z,98529.97
2022-08-21T05:40:20.133Z,98528.41
2022-08-21T05:42:45.642Z,98530.69
2022-08-21T05:45:42.064Z,98522.31
2022-08-21T05:48:11.742Z,98531.59
2022-08-21T05:50:39.222Z,98537.38
2022-08-21T05:53:07.442Z,98539.38
2022-08-21T05:55:34.885Z,98530.13
2022-08-21T05:58:01.714Z,98530.78
2022-08-21T06:00:28.366Z,98538.34
2022-08-21T06:02:55.030Z,98530.28
2022-08-21T06:05:25.193Z,98538.06
2022-08-21T06:08:03.989Z,98539.09
2022-08-21T06:10:30.663Z,98539.59
2022-08-21T06:12:57.584Z,98534.63
2022-08-21T06:15:24.351Z,98536.44
2022-08-21T06:17:50.931Z,98535.50
2022-08-21T06:20:17.515Z,98540.28
2022-08-21T06:22:44.085Z,98532.72
2022-08-21T06:25:11.238Z,98532.19
2022-08-21T06:27:38.101Z,98534.06
2022-08-21T06:30:06.763Z,98534.75
2022-08-21T06:32:33.628Z,98546.75
2022-08-21T06:35:00.253Z,98540.88
2022-08-21T06:37:26.906Z,98547.78
2022-08-21T06:39:53.548Z,98534.16
2022-08-21T06:42:20.217Z,98535.88
2022-08-21T06:44:46.890Z,98538.97
2022-08-21T06:47:13.540Z,98534.03
2022-08-21T06:49:40.777Z,98537.38
2022-08-21T06:52:11.442Z,98536.00
2022-08-21T06:54:38.297Z,98533.09
2022-08-21T06:57:05.191Z,98533.03
2022-08-21T06:59:32.802Z,98536.66
2022-08-21T07:02:00.647Z,98531.16
2022-08-21T07:04:27.411Z,98534.91
2022-08-21T07:06:54.189Z,98535.34
2022-08-21T07:09:24.526Z,98533.78
2022-08-21T07:11:54.757Z,98535.28
2022-08-21T07:14:21.629Z,98537.19
2022-08-21T07:16:49.680Z,98531.91
2022-08-21T07:19:16.271Z,98533.72
2022-08-21T07:21:42.847Z,98528.50
2022-08-21T07:24:10.045Z,98534.63
2022-08-21T07:26:37.437Z,98525.00
2022-08-21T07:29:04.713Z,98523.84
2022-08-21T07:31:31.665Z,98531.34
2022-08-21T07:33:58.462Z,98516.59
2022-08-21T07:36:25.059Z,98519.94
2022-08-21T07:38:52.919Z,98518.00
2022-08-21T07:41:23.701Z,98509.25
2022-08-21T07:43:52.660Z,98514.88
2022-08-21T07:46:19.883Z,98507.91
2022-08-21T07:48:46.485Z,98513.69
2022-08-21T07:51:15.623Z,98512.25
2022-08-21T07:53:42.498Z,98505.97
2022-08-21T07:56:12.190Z,98516.56
2022-08-21T07:58:39.021Z,98507.56
2022-08-21T08:01:07.532Z,98507.84
2022-08-21T08:03:34.955Z,98502.06
2022-08-21T08:06:02.015Z,98508.78
2022-08-21T08:08:28.670Z,98506.50
2022-08-21T08:10:57.839Z,98509.00
2022-08-21T08:13:25.006Z,98501.63
2022-08-21T08:15:52.103Z,98500.19
2022-08-21T08:18:18.703Z,98497.53
2022-08-21T08:20:45.993Z,98502.31
2022-08-21T08:23:16.373Z,98497.56
2022-08-21T08:25:43.065Z,98495.59
2022-08-21T08:28:16.983Z,98493.78
2022-08-21T08:30:46.432Z,98486.00
2022-08-21T08:33:13.638Z,98478.28
2022-08-21T08:35:48.495Z,98474.91
2022-08-21T08:38:19.803Z,98481.91
2022-08-21T08:41:14.038Z,98470.25
2022-08-21T08:43:43.305Z,98477.09
2022-08-21T08:46:17.289Z,98475.16
2022-08-21T08:48:55.319Z,98480.34
2022-08-21T08:51:42.197Z,98476.38
2022-08-21T08:54:13.559Z,98477.75
2022-08-21T08:56:40.370Z,98479.34
2022-08-21T08:59:17.763Z,98478.38
2022-08-21T09:01:44.951Z,98485.06
2022-08-21T09:04:14.521Z,98477.03
2022-08-21T09:06:46.693Z,98483.72
2022-08-21T09:09:49.473Z,98484.09
2022-08-21T09:12:51.792Z,98469.69
2022-08-21T09:15:32.241Z,98460.34
2022-08-21T09:18:37.603Z,98458.50
2022-08-21T09:21:28.202Z,98457.19
2022-08-21T09:24:00.858Z,98451.41
2022-08-21T09:26:33.478Z,98448.34
2022-08-21T09:29:01.734Z,98450.56
2022-08-21T09:31:35.182Z,98444.84
2022-08-21T09:34:04.431Z,98455.38
2022-08-21T09:36:44.104Z,98453.41
2022-08-21T09:39:13.966Z,98455.91
2022-08-21T09:41:41.055Z,98453.97
2022-08-21T09:44:09.914Z,98456.38
2022-08-21T09:46:37.418Z,98449.94
2022-08-21T09:49:06.821Z,98454.81
2022-08-21T09:51:53.538Z,98451.84
2022-08-21T09:54:26.612Z,98456.06
2022-08-21T09:57:19.035Z,98449.31
2022-08-21T09:59:47.913Z,98444.00
2022-08-21T10:02:25.628Z,98442.13
2022-08-21T10:04:57.522Z,98439.47
2022-08-21T10:07:26.713Z,98437.75
2022-08-21T10:10:08.367Z,98428.84
2022-08-21T10:12:50.144Z,98441.13
2022-08-21T10:15:46.278Z,98433.53
2022-08-21T10:18:30.868Z,98431.75
2022-08-21T10:21:15.645Z,98438.56
2022-08-21T10:24:00.438Z,98432.63
2022-08-21T10:26:48.443Z,98439.47
2022-08-21T10:29:33.667Z,98428.56
2022-08-21T10:32:14.164Z,98439.28
2022-08-21T10:35:23.051Z,98430.03
2022-08-21T10:38:50.481Z,98433.44
2022-08-21T10:41:32.939Z,98433.75
2022-08-21T10:44:12.869Z,98431.22
2022-08-21T10:46:58.720Z,98426.66
2022-08-21T10:49:51.631Z,98428.84
2022-08-21T10:52:46.460Z,98416.16
2022-08-21T10:55:19.107Z,98415.78
2022-08-21T10:57:51.575Z,98412.97
2022-08-21T11:00:43.393Z,98405.09
2022-08-21T11:03:21.292Z,98410.47
2022-08-21T11:05:52.831Z,98407.97
2022-08-21T11:08:31.354Z,98411.56
2022-08-21T11:11:13.512Z,98408.56
2022-08-21T11:13:58.050Z,98419.41
2022-08-21T11:16:37.711Z,98410.31
2022-08-21T11:19:29.954Z,98412.75
2022-08-21T11:22:14.813Z,98415.88
2022-08-21T11:24:48.788Z,98415.06
2022-08-21T11:27:41.351Z,98405.38
2022-08-21T11:30:09.644Z,98414.78
2022-08-21T11:33:01.709Z,98418.22
2022-08-21T11:35:45.330Z,98406.97
2022-08-21T11:38:29.057Z,98408.84
2022-08-21T11:41:21.295Z,98394.53
2022-08-21T11:43:53.229Z,98397.41
2022-08-21T11:46:34.865Z,98388.06
2022-08-21T11:49:10.372Z,98386.28
2022-08-21T11:52:14.929Z,98387.84
2022-08-21T11:54:50.966Z,98381.41
2022-08-21T11:57:24.146Z,98372.16
2022-08-21T11:59:57.052Z,98369.72
2022-08-21T12:02:28.815Z,98372.94
2022-08-21T12:05:08.455Z,98370.75
2022-08-21T12:07:37.842Z,98381.00
2022-08-21T12:10:09.953Z,98369.78
2022-08-21T12:12:39.352Z,98370.22
2022-08-21T12:15:20.821Z,98369.03
2022-08-21T12:17:58.320Z,98362.41
2022-08-21T12:20:59.944Z,98372.53
2022-08-21T12:23:30.965Z,98370.25
2022-08-21T12:26:25.131Z,98373.16
2022-08-21T12:28:52.216Z,98366.88
2022-08-21T12:31:21.750Z,98363.88
2022-08-21T12:34:11.631Z,98357.88
2022-08-21T12:36:48.126Z,98353.81
2022-08-21T12:39:23.263Z,98349.38
2022-08-21T12:42:17.974Z,98348.19
2022-08-21T12:44:46.423Z,98345.59
2022-08-21T12:47:25.905Z,98355.16
2022-08-21T12:50:02.118Z,98358.13
2022-08-21T12:52:39.358Z,98348.91
2022-08-21T12:55:08.378Z,98347.84
2022-08-21T12:57:37.293Z,98342.34
2022-08-21T13:00:12.198Z,98342.09
2022-08-21T13:02:43.973Z,98340.28
2022-08-21T13:05:21.568Z,98343.25
2022-08-21T13:07:49.994Z,98340.34
2022-08-21T13:10:23.316Z,98335.34
2022-08-21T13:12:50.167Z,98329.44
2022-08-21T13:15:26.655Z,98326.25
2022-08-21T13:18:03.561Z,98333.06
2022-08-21T13:20:33.510Z,98334.94
2022-08-21T13:23:06.979Z,98334.25
2022-08-21T13:25:38.547Z,98327.00
2022-08-21T13:28:15.819Z,98333.28
2022-08-21T13:30:45.873Z,98329.03
2022-08-21T13:33:16.464Z,98338.78
2022-08-21T13:36:10.080Z,98334.53
2022-08-21T13:38:38.332Z,98329.56
2022-08-21T13:41:12.713Z,98329.94
2022-08-21T13:43:39.437Z,98338.00
2022-08-21T13:46:13.007Z,98323.50
2022-08-21T13:48:39.945Z,98326.34
2022-08-21T13:51:07.395Z,98329.41
2022-08-21T13:53:53.405Z,98334.13
2022-08-21T13:56:46.885Z,98334.94
2022-08-21T13:59:24.054Z,98332.84
2022-08-21T14:02:00.304Z,98331.19
2022-08-21T14:04:37.747Z,98329.53
2022-08-21T14:07:17.385Z,98335.50
2022-08-21T14:09:45.681Z,98327.28
2022-08-21T14:12:23.115Z,98327.56
2022-08-21T14:14:52.092Z,98327.13
2022-08-21T14:17:39.419Z,98320.75
2022-08-21T14:20:13.051Z,98320.28
2022-08-21T14:22:39.596Z,98320.72
2022-08-21T14:25:20.316Z,98325.53
2022-08-21T14:28:03.308Z,98324.31
2022-08-21T14:30:39.101Z,98320.44
2022-08-21T14:33:13.120Z,98317.16
2022-08-21T14:35:40.923Z,98310.25
2022-08-21T14:38:18.692Z,98316.63
2022-08-21T14:40:50.643Z,98318.31
2022-08-21T14:43:20.127Z,98315.50
2022-08-21T14:45:47.726Z,98314.19
2022-08-21T14:48:14.710Z,98316.75
2022-08-21T14:50:41.535Z,98319.91
2022-08-21T14:53:11.073Z,98315.63
2022-08-21T14:55:58.277Z,98317.03
2022-08-21T14:58:26.007Z,98310.66
2022-08-21T15:00:54.998Z,98308.25
2022-08-21T15:03:22.967Z,98309.25
2022-08-21T15:05:50.156Z,98307.97
2022-08-21T15:08:17.795Z,98309.06
2022-08-21T15:11:08.607Z,98302.72
2022-08-21T15:13:32.453Z,98313.78
2022-08-21T15:15:59.708Z,98304.25
2022-08-21T15:18:28.688Z,98302.00
2022-08-21T15:20:55.273Z,98300.47
2022-08-21T15:23:22.365Z,98300.00
2022-08-21T15:25:50.172Z,98298.16
2022-08-21T15:28:18.096Z,98297.97
2022-08-21T15:30:46.181Z,98291.22
2022-08-21T15:33:13.034Z,98287.84
2022-08-21T15:35:41.174Z,98291.22
2022-08-21T15:38:07.989Z,98279.59
2022-08-21T15:40:39.535Z,98284.91
2022-08-21T15:43:34.390Z,98286.91
2022-08-21T15:46:02.309Z,98275.13
2022-08-21T15:48:29.418Z,98280.13
2022-08-21T15:50:56.080Z,98268.81
2022-08-21T15:53:22.922Z,98267.66
2022-08-21T15:55:49.631Z,98277.31
2022-08-21T15:58:17.384Z,98278.16
2022-08-21T16:00:45.698Z,98273.59
2022-08-21T16:03:17.761Z,98278.94
2022-08-21T16:05:46.038Z,98272.69
2022-08-21T16:08:12.966Z,98263.66
2022-08-21T16:10:40.917Z,98278.13
2022-08-21T16:13:15.973Z,98275.13
2022-08-21T16:15:42.954Z,98268.44
2022-08-21T16:18:11.129Z,98268.19
2022-08-21T16:20:37.815Z,98272.44
2022-08-21T16:23:04.467Z,98269.19
2022-08-21T16:25:34.051Z,98272.13
2022-08-21T16:28:02.873Z,98259.94
2022-08-21T16:30:30.773Z,98271.81
2022-08-21T16:32:58.005Z,98270.41
2022-08-21T16:35:25.324Z,98269.56
2022-08-21T16:37:53.335Z,98268.94
2022-08-21T16:40:20.842Z,98258.56
2022-08-21T16:42:49.241Z,98263.09
2022-08-21T16:45:19.084Z,98265.59
2022-08-21T16:47:45.863Z,98264.88
2022-08-21T16:50:17.921Z,98258.63
2022-08-21T16:52:44.569Z,98252.06
2022-08-21T16:55:11.351Z,98253.75
2022-08-21T16:57:38.923Z,98260.25
2022-08-21T17:00:12.923Z,98255.41
2022-08-21T17:02:44.075Z,98259.88
2022-08-21T17:05:12.935Z,98258.19
2022-08-21T17:07:41.751Z,98256.47
2022-08-21T17:10:09.515Z,98263.25
2022-08-21T17:12:36.688Z,98263.91
2022-08-21T17:15:12.890Z,98262.16
2022-08-21T17:17:39.667Z,98275.47
2022-08-21T17:20:07.467Z,98273.53
2022-08-21T17:22:34.314Z,98270.44
2022-08-21T17:25:01.112Z,98270.69
2022-08-21T17:27:28.640Z,98276.06
2022-08-21T17:29:56.266Z,98272.16
2022-08-21T17:32:23.657Z,98272.94
2022-08-21T17:34:50.396Z,98267.22
2022-08-21T17:37:17.130Z,98275.91
2022-08-21T17:39:44.079Z,98272.09
2022-08-21T17:42:13.911Z,98274.97
2022-08-21T17:44:45.779Z,98272.75
2022-08-21T17:47:13.977Z,98282.78
2022-08-21T17:49:41.537Z,98274.97
2022-08-21T17:52:08.986Z,98272.06
2022-08-21T17:54:37.085Z,98273.09
2022-08-21T17:57:04.933Z,98272.88
2022-08-21T17:59:32.518Z,98278.97
2022-08-21T18:02:01.764Z,98278.22
2022-08-21T18:04:29.898Z,98284.84
2022-08-21T18:06:57.322Z,98281.69
2022-08-21T18:09:28.282Z,98284.09
2022-08-21T18:11:58.979Z,98286.16
2022-08-21T18:14:29.922Z,98291.03
2022-08-21T18:16:56.983Z,98292.34
2022-08-21T18:19:26.272Z,98299.16
2022-08-21T18:21:54.862Z,98295.75
2022-08-21T18:24:22.526Z,98302.81
2022-08-21T18:26:50.458Z,98298.34
2022-08-21T18:29:20.769Z,98299.50
2022-08-21T18:31:49.010Z,98305.16
2022-08-21T18:34:34.457Z,98304.47
2022-08-21T18:37:02.667Z,98304.47
2022-08-21T18:39:38.228Z,98306.78
2022-08-21T18:42:11.272Z,98308.22
2022-08-21T18:44:40.133Z,98309.34
2022-08-21T18:47:14.609Z,98313.97
2022-08-21T18:52:28.502Z,98312.75
2022-08-21T18:54:55.604Z,98314.38
2022-08-21T18:57:24.199Z,98316.81
2022-08-21T18:59:51.133Z,98315.72
2022-08-21T19:02:18.146Z,98320.66
2022-08-21T19:04:45.288Z,98316.13
2022-08-21T19:07:14.188Z,98324.22
2022-08-21T19:09:42.402Z,98324.66
2022-08-21T19:12:18.690Z,98326.31
2022-08-21T19:14:45.939Z,98332.34
2022-08-21T19:17:13.817Z,98332.44
2022-08-21T19:19:40.773Z,98333.53
2022-08-21T19:22:10.964Z,98335.63
2022-08-21T19:24:39.633Z,98329.75
2022-08-21T19:27:16.972Z,98335.75
2022-08-21T19:29:44.050Z,98335.66
2022-08-21T19:32:11.619Z,98328.41
2022-08-21T19:34:39.370Z,98327.38
2022-08-21T19:37:06.554Z,98337.00
2022-08-21T19:39:42.487Z,98332.22
2022-08-21T19:42:13.736Z,98336.22
2022-08-21T19:44:41.091Z,98338.66
2022-08-21T19:47:19.044Z,98343.81
2022-08-21T19:49:50.830Z,98343.22
2022-08-21T19:52:18.262Z,98337.91
2022-08-21T19:54:45.022Z,98346.34
2022-08-21T19:57:12.931Z,98347.59
2022-08-21T19:59:40.869Z,98343.75
2022-08-21T20:02:09.503Z,98358.06
2022-08-21T20:04:36.958Z,98356.16
2022-08-21T20:07:04.789Z,98356.34
2022-08-21T20:09:37.301Z,98347.94
2022-08-21T20:12:10.232Z,98351.47
2022-08-21T20:14:43.072Z,98358.22
2022-08-21T20:17:12.780Z,98353.69
2022-08-21T20:19:43.351Z,98353.06
2022-08-21T20:22:12.090Z,98360.13
2022-08-21T20:24:39.762Z,98356.84
2022-08-21T20:27:11.195Z,98359.94
2022-08-21T20:29:39.434Z,98360.97
2022-08-21T20:32:08.124Z,98348.84
2022-08-21T20:34:39.711Z,98356.66
2022-08-21T20:37:06.476Z,98363.16
2022-08-21T20:39:36.001Z,98350.72
2022-08-21T20:42:04.859Z,98360.94
2022-08-21T20:44:34.004Z,98360.28
2022-08-21T20:47:08.519Z,98359.06
2022-08-21T20:49:43.174Z,98365.22
2022-08-21T20:55:07.402Z,98361.41
2022-08-21T20:57:36.846Z,98366.19
2022-08-21T21:00:14.443Z,98366.66
2022-08-21T21:03:05.062Z,98364.53
2022-08-21T21:05:39.555Z,98358.34
2022-08-21T21:08:28.352Z,98367.09
2022-08-21T21:11:16.383Z,98366.47
2022-08-21T21:13:51.467Z,98360.75
2022-08-21T21:16:24.626Z,98360.56
2022-08-21T21:19:04.729Z,98356.16
2022-08-21T21:21:36.009Z,98364.16
2022-08-21T21:24:07.922Z,98361.13
2022-08-21T21:26:38.889Z,98354.25
2022-08-21T21:29:29.853Z,98355.97
2022-08-21T21:31:56.779Z,98357.88
2022-08-21T21:34:26.765Z,98363.00
2022-08-21T21:37:04.581Z,98368.16
2022-08-21T21:39:39.985Z,98367.84
2022-08-21T21:42:30.147Z,98369.13
2022-08-21T21:45:24.477Z,98377.41
2022-08-21T21:48:21.118Z,98367.94
2022-08-21T21:51:00.751Z,98365.53
2022-08-21T21:53:51.929Z,98370.09
2022-08-21T21:56:40.422Z,98364.84
2022-08-21T21:59:25.653Z,98361.53
2022-08-21T22:02:14.507Z,98364.53
2022-08-21T22:05:06.130Z,98361.97
2022-08-21T22:07:46.712Z,98369.00
2022-08-21T22:10:30.505Z,98367.13
2022-08-21T22:13:26.282Z,98370.91
2022-08-21T22:15:54.738Z,98369.38
2022-08-21T22:18:31.932Z,98371.59
2022-08-21T22:21:09.919Z,98372.63
2022-08-21T22:23:42.785Z,98379.56
2022-08-21T22:26:16.665Z,98378.50
2022-08-21T22:28:49.830Z,98380.38
2022-08-21T22:31:32.750Z,98383.31
2022-08-21T22:34:18.297Z,98396.84
2022-08-21T22:37:07.581Z,98385.59
2022-08-21T22:39:43.706Z,98393.84
2022-08-21T22:42:24.763Z,98395.38
2022-08-21T22:44:57.324Z,98393.44
2022-08-21T22:47:34.801Z,98397.19
2022-08-21T22:50:06.673Z,98397.72
2022-08-21T22:52:36.573Z,98395.38
2022-08-21T22:58:31.336Z,98393.34
2022-08-21T23:01:04.116Z,98395.47
2022-08-21T23:03:43.710Z,98396.31
2022-08-21T23:06:34.883Z,98402.13
2022-08-21T23:09:02.259Z,98409.97
2022-08-21T23:11:41.158Z,98402.84
2022-08-21T23:14:11.946Z,98406.44
2022-08-21T23:17:08.745Z,98408.28
2022-08-21T23:19:50.638Z,98411.50
2022-08-21T23:22:36.236Z,98403.72
2022-08-21T23:25:17.318Z,98407.31
2022-08-21T23:28:04.354Z,98401.19
2022-08-21T23:30:51.372Z,98408.69
2022-08-21T23:33:38.799Z,98406.59
2022-08-21T23:37:00.945Z,98400.81
2022-08-21T23:39:43.000Z,98398.72
2022-08-21T23:42:36.982Z,98403.50
2022-08-21T23:45:14.430Z,98404.81
2022-08-21T23:48:06.975Z,98400.94
2022-08-21T23:51:08.483Z,98399.97
2022-08-21T23:53:55.590Z,98401.13
2022-08-21T23:56:49.486Z,98408.56
2022-08-21T23:59:43.685Z,98407.88
